Airfield :
LOGIN :

Register | Disclaimer

   EN    FR    IT 

 










Legend :    VFR   Marginal VFR   IFR   Intensive IFR   Very Intensive IFR
Visi :
Ceiling :
>= 8 km
>= 3000ft
5 to 8 km
1000 to 3000 ft
1500m to 5 km
500 to 1000 ft
800 to 1500m
200 to 500 ft
< 800m
< 200 ft
Symbols :   Thunderstorms  Fog  Heavy snow  Heavy precipitations  Wind > 20 kt
SIGMETs :     Misc.  Thunderstorms  Icing  Turbulence  Mountain Waves  Volcanic Ashes







- Airport Elevation : 291 ft
- IATA code : ORY
- Download approach charts


LFPO - Paris-Orly

CURRENT METAR :
  • 160900Z 31006KT 9999 FEW014 BKN023 05/02 Q1015 NOSIG

EXPIRED METARs :
  • 160830Z 33006KT 290V350 9999 FEW016 BKN029 05/01 Q1015 NOSIG
  • 160800Z 32008KT 9999 FEW019 BKN030 BKN240 05/01 Q1014 NOSIG
  • 160730Z 33007KT 9999 FEW018 BKN030 BKN240 04/01 Q1014 NOSIG
  • 160700Z 33008KT 300V360 9999 FEW018 BKN031 04/01 Q1013 NOSIG
  • 160630Z 33009KT 9999 SCT014 BKN030 05/02 Q1013 NOSIG
  • 160600Z 33007KT 300V010 9999 SCT013 BKN030 05/02 Q1012 NOSIG

TAF TAF LFPO
Valid from the 16 at 06:00 until the 17 at 12:00 UTC


160500Z 1606/1712 33008KT 9999 BKN020
PROB40
TEMPO 1606/1612 32010G20KT BKN014
BECMG 1612/1614 CAVOK
BECMG 1619/1621 25005KT BKN012
PROB40
TEMPO 1621/1701 4000 -RADZ BKN006
TEMPO 1701/1710 3000 BR BKN003
PROB30
TEMPO 1703/1707 0800 BCFG
ATIS : +33 1 49 75 65 80
No reported NOTAMs for that airfield.



MET'MAP, your aeronautical weather chart ! - Copyright ORBIFLY December 2007 - Disclaimer

ORBIFLY MET'MAP TEAM :

Programming & Development : Alexandra Zaïnal
Concept & Development : Baudouin d'Aumeries
Co-Development & Prog : Marc-Olivier Méhu
Technical & hardware support : Manuel Goepfert

Contact : metmap@orbifly.com




SOURCES & CREDITS :

   NOAA